Time;durP1;ratioP1;P1;durP2;ratioP2;P2;SDS_P1;SDS_P2;PMS_P1;PMS_P2;Temp;Humidity;BMP_temperature;BMP_pressure;BME280_temperature;BME280_humidity;BME280_pressure;Samples;Min_cycle;Max_cycle;Signal;HPM_P1;HPM_P2
2022/08/06 00:02:27;;;;;;;3.63;1.30;;;15.90;99.90;;;;;;5074424;28;20482;-84
2022/08/06 00:04:54;;;;;;;3.50;1.40;;;15.90;99.90;;;;;;5077255;28;20469;-84
2022/08/06 00:07:21;;;;;;;4.37;1.40;;;15.90;99.90;;;;;;5083662;28;20521;-81
2022/08/06 00:09:48;;;;;;;4.47;1.70;;;15.80;99.90;;;;;;5082373;28;20553;-82
2022/08/06 00:12:15;;;;;;;3.23;1.30;;;15.80;99.90;;;;;;5088045;28;20533;-83
2022/08/06 00:14:42;;;;;;;4.37;1.73;;;15.80;99.90;;;;;;5078036;28;20557;-82
2022/08/06 00:17:09;;;;;;;2.73;1.00;;;15.70;99.90;;;;;;5077592;28;20501;-83
2022/08/06 00:19:37;;;;;;;2.70;1.30;;;15.70;99.90;;;;;;5082197;28;20484;-85
2022/08/06 00:22:04;;;;;;;3.40;1.20;;;15.60;99.90;;;;;;5079918;28;20566;-83
2022/08/06 00:24:31;;;;;;;6.13;1.80;;;15.60;99.90;;;;;;5074381;28;20455;-83
2022/08/06 00:26:58;;;;;;;4.13;1.57;;;15.60;99.90;;;;;;5071930;28;20481;-83
2022/08/06 00:29:24;;;;;;;3.77;1.37;;;15.60;99.90;;;;;;5074513;28;20457;-84
2022/08/06 00:31:51;;;;;;;4.23;1.37;;;15.50;99.90;;;;;;5077374;28;20455;-83
2022/08/06 00:34:18;;;;;;;3.70;1.47;;;15.50;99.90;;;;;;5074147;28;21100;-83
2022/08/06 00:36:46;;;;;;;3.67;1.90;;;15.50;99.90;;;;;;5072312;28;20471;-83
2022/08/06 00:39:13;;;;;;;3.60;1.83;;;15.40;99.90;;;;;;5074197;28;20474;-81
2022/08/06 00:41:40;;;;;;;2.80;1.47;;;15.40;99.90;;;;;;5074682;28;20460;-83
2022/08/06 00:44:07;;;;;;;6.63;1.60;;;15.40;99.90;;;;;;5074553;28;20851;-84
2022/08/06 00:46:34;;;;;;;3.33;1.47;;;15.40;99.90;;;;;;5073531;28;20453;-82
2022/08/06 00:49:01;;;;;;;5.50;1.90;;;15.30;99.90;;;;;;5071385;28;20483;-83
2022/08/06 00:51:28;;;;;;;5.90;2.10;;;15.30;99.90;;;;;;5074727;28;20443;-84
2022/08/06 00:53:56;;;;;;;3.47;1.90;;;15.30;99.90;;;;;;5074496;28;20532;-83
2022/08/06 00:56:23;;;;;;;3.90;1.70;;;15.20;99.90;;;;;;5075911;28;20538;-83
2022/08/06 00:58:50;;;;;;;4.50;1.93;;;15.10;99.90;;;;;;5074586;28;20557;-82
2022/08/06 01:01:17;;;;;;;5.73;1.60;;;15.10;99.90;;;;;;5073258;28;20551;-82
2022/08/06 01:03:44;;;;;;;2.83;1.30;;;15.10;99.90;;;;;;5072555;28;20535;-82
2022/08/06 01:06:11;;;;;;;3.10;1.90;;;15.10;99.90;;;;;;5077180;28;20482;-81
2022/08/06 01:08:38;;;;;;;7.20;1.50;;;15.10;99.90;;;;;;5072046;28;20507;-82
2022/08/06 01:11:06;;;;;;;3.60;1.70;;;15.10;99.90;;;;;;5071707;28;20463;-83
2022/08/06 01:13:33;;;;;;;2.80;2.00;;;15.10;99.90;;;;;;5071778;28;20491;-83
2022/08/06 01:16:08;;;;;;;3.63;1.83;;;15.00;99.90;;;;;;5068527;28;20573;-84
2022/08/06 01:18:45;;;;;;;3.20;1.60;;;15.00;99.90;;;;;;5072507;28;20920;-80
2022/08/06 01:21:32;;;;;;;4.50;1.70;;;14.90;99.90;;;;;;5069303;28;20963;-82
2022/08/06 01:24:25;;;;;;;2.63;1.40;;;14.90;99.90;;;;;;5069228;28;20518;-83
2022/08/06 01:27:04;;;;;;;7.03;1.60;;;14.90;99.90;;;;;;5072902;28;20942;-83
2022/08/06 01:29:37;;;;;;;4.07;1.83;;;14.80;99.90;;;;;;5071710;28;20555;-83
2022/08/06 01:32:08;;;;;;;2.90;1.80;;;14.80;99.90;;;;;;5072275;28;20530;-83
2022/08/06 01:34:40;;;;;;;3.07;1.73;;;14.80;99.90;;;;;;5069750;28;20583;-85
2022/08/06 01:37:14;;;;;;;2.93;1.77;;;14.70;99.90;;;;;;5072696;28;20531;-81
2022/08/06 01:39:43;;;;;;;2.87;1.70;;;14.70;99.90;;;;;;5072070;28;20515;-83
2022/08/06 01:42:12;;;;;;;3.80;2.07;;;14.70;99.90;;;;;;5078340;28;20589;-83
2022/08/06 01:44:44;;;;;;;4.23;1.80;;;14.70;99.90;;;;;;5086203;28;20454;-83
2022/08/06 01:47:13;;;;;;;2.73;1.80;;;14.60;99.90;;;;;;5085498;28;20475;-80
2022/08/06 01:49:43;;;;;;;4.13;1.80;;;14.60;99.90;;;;;;5084409;28;20483;-84
2022/08/06 01:52:12;;;;;;;3.00;1.70;;;14.60;99.90;;;;;;5082302;28;20449;-84
2022/08/06 01:54:42;;;;;;;2.70;1.70;;;14.60;99.90;;;;;;5080336;28;20488;-82
2022/08/06 01:57:13;;;;;;;4.63;2.00;;;14.50;99.90;;;;;;5080175;28;20495;-81
2022/08/06 01:59:45;;;;;;;3.17;1.97;;;14.60;99.90;;;;;;5065134;28;20561;-83
2022/08/06 02:02:17;;;;;;;4.07;1.57;;;14.50;99.90;;;;;;5080857;28;20525;-82
2022/08/06 02:04:48;;;;;;;3.77;2.00;;;14.50;99.90;;;;;;5079340;28;20450;-84
2022/08/06 02:07:18;;;;;;;2.90;1.50;;;14.50;99.90;;;;;;5080466;28;20555;-83
2022/08/06 02:09:47;;;;;;;4.43;2.00;;;14.40;99.90;;;;;;5080409;28;20499;-83
2022/08/06 02:12:18;;;;;;;4.03;2.20;;;14.40;99.90;;;;;;5081558;28;20523;-83
2022/08/06 02:14:49;;;;;;;3.30;1.83;;;14.40;99.90;;;;;;5080012;28;20869;-84
2022/08/06 02:17:18;;;;;;;3.23;1.93;;;14.40;99.90;;;;;;5081365;28;20549;-83
2022/08/06 02:19:48;;;;;;;2.63;1.47;;;14.40;99.90;;;;;;5081098;28;20892;-84
2022/08/06 02:22:16;;;;;;;3.77;1.90;;;14.40;99.90;;;;;;5081902;28;20506;-84
2022/08/06 02:24:44;;;;;;;3.00;2.23;;;14.30;99.90;;;;;;5079952;28;20962;-82
2022/08/06 02:27:13;;;;;;;3.37;1.83;;;14.30;99.90;;;;;;5081041;28;20511;-82
2022/08/06 02:29:42;;;;;;;3.80;2.30;;;14.30;99.90;;;;;;5080885;28;20472;-82
2022/08/06 02:32:11;;;;;;;4.40;2.30;;;14.30;99.90;;;;;;5081284;28;20477;-83
2022/08/06 02:34:38;;;;;;;4.20;2.40;;;14.20;99.90;;;;;;5080178;28;20593;-82
2022/08/06 02:37:09;;;;;;;5.50;2.53;;;14.20;99.90;;;;;;5080593;28;20542;-83
2022/08/06 02:39:40;;;;;;;3.23;1.83;;;14.20;99.90;;;;;;5080785;28;20455;-85
2022/08/06 02:42:12;;;;;;;3.37;2.20;;;14.20;99.90;;;;;;5080948;28;20548;-84
2022/08/06 02:44:45;;;;;;;4.20;1.97;;;14.20;99.90;;;;;;5080317;28;20451;-84
2022/08/06 02:47:18;;;;;;;4.20;2.47;;;14.20;99.90;;;;;;5080635;28;20470;-84
2022/08/06 02:49:49;;;;;;;3.47;2.20;;;14.20;99.90;;;;;;5077133;28;20456;-83
2022/08/06 02:52:20;;;;;;;6.37;2.33;;;14.20;99.90;;;;;;5080634;28;21013;-83
2022/08/06 02:54:55;;;;;;;4.60;2.10;;;14.10;99.90;;;;;;5079766;28;20476;-84
2022/08/06 02:57:25;;;;;;;4.33;1.60;;;14.10;99.90;;;;;;5079264;28;21019;-83
2022/08/06 02:59:58;;;;;;;3.30;2.20;;;14.00;99.90;;;;;;5077855;28;20457;-84
2022/08/06 03:02:29;;;;;;;3.10;1.90;;;14.10;99.90;;;;;;5079395;28;20456;-83
2022/08/06 03:04:58;;;;;;;5.20;2.00;;;14.00;99.90;;;;;;5079042;28;20504;-83
2022/08/06 03:07:29;;;;;;;3.37;1.80;;;14.10;99.90;;;;;;5079915;28;20549;-83
2022/08/06 03:09:57;;;;;;;3.00;2.07;;;14.00;99.90;;;;;;5080409;28;20475;-83
2022/08/06 03:12:25;;;;;;;5.30;2.23;;;14.00;99.90;;;;;;5080981;28;20514;-82
2022/08/06 03:14:54;;;;;;;5.20;2.40;;;14.00;99.90;;;;;;5081686;28;20572;-83
2022/08/06 03:17:22;;;;;;;4.63;2.63;;;14.00;99.90;;;;;;5082391;28;20535;-83
2022/08/06 03:19:52;;;;;;;4.40;2.00;;;13.90;99.90;;;;;;5082960;28;20440;-82
2022/08/06 03:22:20;;;;;;;3.23;2.30;;;13.90;99.90;;;;;;5083079;28;21017;-82
2022/08/06 03:24:49;;;;;;;3.33;2.10;;;13.80;99.90;;;;;;5082815;28;20510;-84
2022/08/06 03:27:18;;;;;;;4.60;2.20;;;13.80;99.90;;;;;;5081964;28;20534;-82
2022/08/06 03:29:45;;;;;;;7.10;2.30;;;13.90;99.90;;;;;;5081176;28;20515;-83
2022/08/06 03:32:14;;;;;;;5.60;2.00;;;13.80;99.90;;;;;;5082315;28;20528;-84
2022/08/06 03:34:42;;;;;;;2.50;1.90;;;13.80;99.90;;;;;;5083207;28;20956;-81
2022/08/06 03:37:11;;;;;;;2.43;1.63;;;13.80;99.90;;;;;;5080977;28;20913;-83
2022/08/06 03:39:42;;;;;;;3.37;1.77;;;13.80;99.90;;;;;;5081516;28;20455;-83
2022/08/06 03:42:09;;;;;;;2.93;2.00;;;13.80;99.90;;;;;;5080581;28;20460;-81
2022/08/06 03:44:37;;;;;;;3.07;2.00;;;13.80;99.90;;;;;;5080341;28;20462;-82
2022/08/06 03:47:08;;;;;;;3.90;2.17;;;13.80;99.90;;;;;;5082010;28;20474;-85
2022/08/06 03:49:38;;;;;;;3.80;1.67;;;13.70;99.90;;;;;;5081331;28;20448;-85
2022/08/06 03:52:07;;;;;;;3.10;2.00;;;13.70;99.90;;;;;;5082772;28;20493;-84
2022/08/06 03:54:45;;;;;;;3.73;2.30;;;13.70;99.90;;;;;;5082712;28;20985;-85
2022/08/06 03:57:16;;;;;;;2.83;1.83;;;13.70;99.90;;;;;;5083612;28;20478;-85
2022/08/06 03:59:45;;;;;;;3.77;2.40;;;13.70;99.90;;;;;;5084722;28;20535;-85
2022/08/06 04:02:15;;;;;;;3.30;2.33;;;13.70;99.90;;;;;;5085532;28;20454;-81
2022/08/06 04:04:43;;;;;;;3.33;2.00;;;13.70;99.90;;;;;;5093932;28;20510;-84
2022/08/06 04:07:11;;;;;;;4.07;1.90;;;13.60;99.90;;;;;;5090975;28;20476;-81
2022/08/06 04:09:40;;;;;;;3.10;2.00;;;13.60;99.90;;;;;;5079312;28;20479;-79
2022/08/06 04:12:08;;;;;;;4.77;2.10;;;13.60;99.90;;;;;;5081465;28;20532;-82
2022/08/06 04:14:36;;;;;;;3.97;2.53;;;13.60;99.90;;;;;;5080327;28;20876;-81
2022/08/06 04:17:04;;;;;;;3.93;2.03;;;13.60;99.90;;;;;;5080743;28;20882;-80
2022/08/06 04:19:33;;;;;;;4.87;2.20;;;13.60;99.90;;;;;;5073823;28;20627;-80
2022/08/06 04:22:01;;;;;;;3.30;2.00;;;13.60;99.90;;;;;;5075920;28;20475;-80
2022/08/06 04:24:27;;;;;;;4.33;2.67;;;13.60;99.90;;;;;;5079961;28;20522;-81
2022/08/06 04:26:58;;;;;;;6.10;3.20;;;13.60;99.90;;;;;;5081116;28;20474;-81
2022/08/06 04:29:25;;;;;;;3.67;1.90;;;13.60;99.90;;;;;;5080477;28;20450;-82
2022/08/06 04:31:53;;;;;;;3.40;2.60;;;13.60;99.90;;;;;;5081385;28;20486;-82
2022/08/06 04:34:23;;;;;;;3.17;2.43;;;13.60;99.90;;;;;;5080281;28;20452;-83
2022/08/06 04:36:51;;;;;;;4.00;2.30;;;13.60;99.90;;;;;;5081497;28;20520;-81
2022/08/06 04:39:19;;;;;;;3.10;2.20;;;13.60;99.90;;;;;;5067852;28;20455;-81
2022/08/06 04:41:46;;;;;;;3.80;2.27;;;13.60;99.90;;;;;;5060949;28;20499;-80
2022/08/06 04:44:14;;;;;;;5.57;2.50;;;13.70;99.90;;;;;;5063422;28;20490;-82
2022/08/06 04:46:43;;;;;;;4.10;2.20;;;13.60;99.90;;;;;;5081503;28;20445;-80
2022/08/06 04:49:10;;;;;;;5.07;2.67;;;13.60;99.90;;;;;;5080433;28;20465;-83
2022/08/06 04:51:38;;;;;;;3.70;1.97;;;13.70;99.90;;;;;;5079231;28;20489;-83
2022/08/06 04:54:05;;;;;;;6.00;2.80;;;13.70;99.90;;;;;;5078446;28;20485;-81
2022/08/06 04:56:32;;;;;;;4.40;2.90;;;13.80;99.90;;;;;;5080041;28;20483;-80
2022/08/06 04:58:59;;;;;;;2.50;2.00;;;13.80;99.90;;;;;;5083438;28;20583;-82
2022/08/06 05:01:27;;;;;;;6.50;2.73;;;13.80;99.90;;;;;;5082584;28;20539;-79
2022/08/06 05:03:54;;;;;;;3.97;2.50;;;13.90;99.90;;;;;;5083043;28;20544;-80
2022/08/06 05:06:25;;;;;;;5.73;2.67;;;13.90;99.90;;;;;;5083386;28;20449;-80
2022/08/06 05:08:57;;;;;;;3.50;2.67;;;13.90;99.90;;;;;;5083082;28;20549;-81
2022/08/06 05:11:26;;;;;;;5.97;2.70;;;14.00;99.90;;;;;;5083372;28;20448;-82
2022/08/06 05:13:57;;;;;;;3.50;2.67;;;14.10;99.90;;;;;;5083537;28;20478;-82
2022/08/06 05:16:26;;;;;;;3.80;3.10;;;14.20;99.90;;;;;;5084886;28;20484;-81
2022/08/06 05:19:00;;;;;;;6.00;2.63;;;14.30;99.90;;;;;;5084491;28;20491;-80
2022/08/06 05:21:32;;;;;;;5.40;3.40;;;14.30;99.90;;;;;;5083934;28;20447;-81
2022/08/06 05:24:00;;;;;;;6.80;3.27;;;14.40;99.90;;;;;;5082682;28;20507;-83
2022/08/06 05:26:27;;;;;;;4.23;2.57;;;14.50;99.90;;;;;;5083782;28;20474;-82
2022/08/06 05:28:54;;;;;;;6.27;3.10;;;14.60;99.90;;;;;;5073919;28;20544;-83
2022/08/06 05:31:29;;;;;;;7.77;3.33;;;14.60;99.90;;;;;;5079580;28;20907;-82
2022/08/06 05:33:58;;;;;;;6.47;2.83;;;14.60;99.90;;;;;;5076450;28;20450;-82
2022/08/06 05:36:24;;;;;;;5.00;2.93;;;14.70;99.90;;;;;;5070839;28;20496;-81
2022/08/06 05:38:51;;;;;;;6.53;3.23;;;14.80;99.90;;;;;;5071991;28;20489;-84
2022/08/06 05:41:18;;;;;;;3.13;2.57;;;14.80;99.90;;;;;;5073822;28;20542;-84
2022/08/06 05:43:45;;;;;;;5.40;2.87;;;14.80;99.90;;;;;;5075422;28;20547;-82
2022/08/06 05:46:15;;;;;;;5.50;3.10;;;14.90;99.90;;;;;;5072717;28;20961;-82
2022/08/06 05:48:46;;;;;;;5.20;2.60;;;15.00;99.90;;;;;;5074741;28;20464;-83
2022/08/06 05:51:20;;;;;;;5.80;3.20;;;15.00;99.90;;;;;;5073717;28;20859;-82
2022/08/06 05:53:52;;;;;;;5.40;2.93;;;15.10;99.90;;;;;;5072623;28;20469;-81
2022/08/06 05:56:25;;;;;;;4.37;2.50;;;15.10;99.90;;;;;;5072859;28;20465;-83
2022/08/06 05:58:57;;;;;;;5.37;2.90;;;15.10;99.90;;;;;;5074770;28;20903;-82
2022/08/06 06:01:24;;;;;;;8.10;2.77;;;15.20;99.90;;;;;;5071904;28;20901;-82
2022/08/06 06:03:53;;;;;;;6.43;2.67;;;15.20;99.90;;;;;;5075677;28;20534;-82
2022/08/06 06:06:22;;;;;;;4.60;2.80;;;15.10;99.90;;;;;;5076244;28;20469;-83
2022/08/06 06:08:49;;;;;;;4.43;2.27;;;15.20;99.90;;;;;;5074912;28;20568;-80
2022/08/06 06:11:17;;;;;;;4.33;2.33;;;15.20;99.90;;;;;;5075123;28;20502;-81
2022/08/06 06:13:45;;;;;;;7.07;2.50;;;15.40;99.90;;;;;;5074525;28;20535;-80
2022/08/06 06:16:20;;;;;;;8.10;2.30;;;15.50;99.90;;;;;;5067129;28;20864;-82
2022/08/06 06:18:58;;;;;;;6.83;2.80;;;15.60;99.90;;;;;;5075513;28;20521;-79
2022/08/06 06:21:37;;;;;;;4.73;2.30;;;15.50;99.90;;;;;;5073073;28;20474;-82
2022/08/06 06:24:13;;;;;;;3.77;2.77;;;15.60;99.90;;;;;;5076510;28;20445;-82
2022/08/06 06:29:16;;;;;;;4.33;1.93;;;15.80;99.90;;;;;;5025468;28;20832;-79
2022/08/06 06:31:56;;;;;;;8.03;2.80;;;15.90;99.90;;;;;;5034612;28;20531;-78
2022/08/06 06:34:46;;;;;;;4.63;2.00;;;15.90;99.90;;;;;;5035886;28;20597;-79
2022/08/06 06:37:22;;;;;;;6.07;2.87;;;16.00;99.90;;;;;;5043715;28;20487;-79
2022/08/06 06:40:03;;;;;;;7.30;1.60;;;16.10;99.90;;;;;;5034457;28;20507;-80
2022/08/06 06:42:37;;;;;;;4.63;1.87;;;16.20;99.90;;;;;;5022724;28;20518;-77
2022/08/06 06:45:19;;;;;;;4.20;1.70;;;16.20;99.90;;;;;;5020853;28;21003;-80
2022/08/06 06:47:53;;;;;;;5.60;2.17;;;16.30;99.90;;;;;;5014563;28;20476;-78
2022/08/06 06:50:25;;;;;;;4.97;2.13;;;16.30;99.90;;;;;;5024064;28;20531;-76
2022/08/06 06:52:58;;;;;;;4.13;1.77;;;16.30;99.90;;;;;;5027217;28;20558;-79
2022/08/06 06:55:30;;;;;;;4.90;1.33;;;16.40;99.90;;;;;;5028983;28;20442;-77
2022/08/06 06:58:06;;;;;;;4.33;1.77;;;16.50;99.90;;;;;;5027755;28;20503;-77
2022/08/06 07:00:35;;;;;;;8.37;1.60;;;16.50;99.90;;;;;;5033631;28;20456;-78
2022/08/06 07:03:03;;;;;;;6.27;1.83;;;16.60;99.90;;;;;;5026549;28;20453;-77
2022/08/06 07:05:32;;;;;;;3.30;1.43;;;16.60;99.90;;;;;;5024802;28;20536;-79
2022/08/06 07:08:01;;;;;;;2.83;1.40;;;16.70;99.90;;;;;;5027390;28;20488;-80
2022/08/06 07:10:29;;;;;;;4.00;1.53;;;16.80;99.90;;;;;;5025497;28;20444;-80
2022/08/06 07:12:58;;;;;;;3.47;1.20;;;16.90;99.90;;;;;;5024801;28;20884;-80
2022/08/06 07:15:26;;;;;;;3.67;1.47;;;16.90;99.90;;;;;;5029756;28;20487;-78
2022/08/06 07:17:54;;;;;;;2.80;1.07;;;17.00;99.90;;;;;;5021516;28;20603;-77
2022/08/06 07:20:24;;;;;;;3.50;1.10;;;17.10;99.90;;;;;;5026783;28;20543;-78
2022/08/06 07:22:53;;;;;;;2.70;1.10;;;17.20;99.90;;;;;;5026081;28;20827;-77
2022/08/06 07:25:23;;;;;;;4.70;1.13;;;17.30;99.90;;;;;;5023719;28;20541;-77
2022/08/06 07:27:51;;;;;;;3.73;1.10;;;17.30;99.90;;;;;;5029022;28;20526;-79
2022/08/06 07:30:20;;;;;;;2.23;0.90;;;17.40;99.90;;;;;;5021758;28;20449;-78
2022/08/06 07:32:50;;;;;;;4.07;0.93;;;17.50;99.90;;;;;;5019175;28;20533;-78
2022/08/06 07:35:19;;;;;;;3.83;1.03;;;17.50;99.90;;;;;;5028029;28;20453;-79
2022/08/06 07:37:51;;;;;;;3.20;1.10;;;17.60;99.90;;;;;;5028625;28;21071;-79
2022/08/06 07:40:25;;;;;;;2.30;0.80;;;17.60;99.90;;;;;;5026312;28;20490;-77
2022/08/06 07:42:58;;;;;;;3.50;0.90;;;17.70;99.90;;;;;;5020275;28;20445;-79
2022/08/06 07:45:29;;;;;;;3.40;0.83;;;17.70;99.90;;;;;;5024015;28;21223;-79
2022/08/06 07:47:58;;;;;;;3.97;1.10;;;17.80;99.90;;;;;;5027805;28;20482;-79
2022/08/06 07:50:27;;;;;;;3.33;0.90;;;17.90;99.90;;;;;;5026911;28;20512;-78
2022/08/06 07:53:03;;;;;;;3.57;0.80;;;18.00;99.90;;;;;;5023351;28;20458;-78
2022/08/06 07:55:35;;;;;;;3.53;0.90;;;18.00;99.90;;;;;;5029146;28;20529;-77
2022/08/06 07:58:04;;;;;;;2.87;1.03;;;18.00;99.90;;;;;;5029220;28;20555;-79
2022/08/06 08:00:32;;;;;;;3.63;1.00;;;18.10;99.90;;;;;;5022831;28;20637;-79
2022/08/06 08:08:31;;;;;;;2.37;0.80;;;18.20;99.90;;;;;;5027711;28;20432;-78
2022/08/06 08:11:00;;;;;;;2.53;1.00;;;18.30;99.90;;;;;;5030356;28;20452;-78
2022/08/06 08:13:27;;;;;;;2.73;0.80;;;18.40;99.90;;;;;;5035553;28;20543;-79
2022/08/06 08:15:56;;;;;;;2.50;0.80;;;18.50;99.90;;;;;;5027448;28;20484;-77
2022/08/06 08:18:29;;;;;;;2.87;0.70;;;18.60;99.90;;;;;;5031087;28;20522;-77
2022/08/06 08:20:57;;;;;;;2.80;0.80;;;18.70;99.90;;;;;;5053759;28;20475;-78
2022/08/06 08:23:25;;;;;;;2.40;0.80;;;18.80;99.90;;;;;;5036775;28;20467;-79
2022/08/06 08:25:52;;;;;;;2.53;0.77;;;18.90;99.90;;;;;;5033873;28;20445;-77
2022/08/06 08:28:20;;;;;;;3.27;0.83;;;18.90;99.90;;;;;;5025871;28;20483;-78
2022/08/06 08:30:50;;;;;;;3.13;0.90;;;19.00;99.90;;;;;;5015033;28;20456;-78
2022/08/06 08:33:17;;;;;;;2.57;0.70;;;19.10;99.90;;;;;;5032969;28;20534;-79
2022/08/06 08:35:44;;;;;;;2.50;0.80;;;19.30;99.90;;;;;;5035665;28;20456;-78
2022/08/06 08:38:11;;;;;;;2.03;0.70;;;19.50;99.90;;;;;;5038032;28;20515;-78
2022/08/06 08:40:39;;;;;;;2.10;0.80;;;19.70;99.90;;;;;;5033034;28;20539;-79
2022/08/06 08:43:08;;;;;;;4.93;1.17;;;19.80;99.90;;;;;;5032086;28;20510;-78
2022/08/06 08:45:37;;;;;;;2.27;0.87;;;19.90;99.90;;;;;;5033269;28;20547;-78
2022/08/06 08:48:05;;;;;;;1.90;0.70;;;20.00;99.90;;;;;;5032687;28;20465;-78
2022/08/06 08:50:34;;;;;;;2.33;0.80;;;20.10;99.90;;;;;;5034357;28;20492;-79
2022/08/06 08:53:04;;;;;;;2.20;0.70;;;20.30;99.90;;;;;;5033613;28;20461;-79
2022/08/06 08:55:31;;;;;;;3.27;0.87;;;20.40;99.90;;;;;;5027100;28;20868;-78
2022/08/06 08:58:00;;;;;;;2.40;0.87;;;20.60;99.90;;;;;;5030544;28;20515;-78
2022/08/06 09:00:27;;;;;;;2.50;0.80;;;20.80;99.90;;;;;;5026135;28;20544;-79
2022/08/06 09:02:56;;;;;;;2.37;0.90;;;21.00;99.90;;;;;;5031898;28;20467;-79
2022/08/06 09:05:23;;;;;;;2.33;0.80;;;21.20;99.90;;;;;;5033449;28;20527;-79
2022/08/06 09:07:52;;;;;;;1.80;0.70;;;21.40;99.90;;;;;;5033205;28;20472;-77
2022/08/06 09:10:19;;;;;;;2.20;0.80;;;21.40;99.90;;;;;;5033656;28;20539;-79
2022/08/06 09:12:47;;;;;;;1.90;0.77;;;21.40;99.90;;;;;;5026178;28;21002;-78
2022/08/06 09:15:17;;;;;;;1.90;0.77;;;21.40;99.90;;;;;;5028180;28;20822;-80
2022/08/06 09:17:47;;;;;;;4.13;0.83;;;21.20;99.90;;;;;;5035060;28;20489;-80
2022/08/06 09:20:16;;;;;;;3.40;0.70;;;21.60;99.90;;;;;;5035842;28;20449;-80
2022/08/06 09:22:44;;;;;;;2.30;0.70;;;21.40;99.90;;;;;;5034290;28;20462;-79
2022/08/06 09:25:35;;;;;;;2.80;0.90;;;21.60;99.90;;;;;;5035771;28;20464;-80
2022/08/06 09:28:02;;;;;;;4.67;1.20;;;21.40;99.90;;;;;;5024598;28;20564;-81
2022/08/06 09:30:32;;;;;;;3.17;0.80;;;21.50;99.90;;;;;;5027662;28;20532;-78
2022/08/06 09:32:59;;;;;;;3.93;0.97;;;21.60;99.90;;;;;;5033891;28;20456;-80
2022/08/06 09:35:29;;;;;;;2.23;0.80;;;21.70;99.90;;;;;;5019991;28;20544;-79
2022/08/06 09:38:02;;;;;;;4.00;0.70;;;21.90;99.90;;;;;;5035948;28;20516;-79
2022/08/06 09:40:29;;;;;;;2.30;0.60;;;22.00;99.90;;;;;;5034782;28;20790;-79
2022/08/06 09:42:56;;;;;;;4.53;0.90;;;22.10;99.90;;;;;;5033898;28;20441;-79
2022/08/06 09:45:24;;;;;;;2.63;0.80;;;22.00;99.90;;;;;;5033914;28;20491;-81
2022/08/06 09:48:03;;;;;;;2.23;0.77;;;22.30;99.90;;;;;;5023272;28;20567;-80
2022/08/06 09:50:40;;;;;;;2.23;0.80;;;22.40;99.90;;;;;;5027890;28;20459;-79
2022/08/06 09:53:07;;;;;;;2.20;0.70;;;22.40;99.90;;;;;;5030036;28;20571;-79
2022/08/06 09:55:34;;;;;;;3.90;0.70;;;22.30;99.90;;;;;;5033222;28;20456;-78
2022/08/06 09:58:04;;;;;;;2.70;0.77;;;22.10;99.90;;;;;;5033291;28;20600;-78
2022/08/06 10:00:39;;;;;;;1.93;0.70;;;21.90;99.90;;;;;;5029799;28;20492;-78
2022/08/06 10:03:08;;;;;;;1.80;0.87;;;21.40;99.90;;;;;;5020191;28;20480;-78
2022/08/06 10:05:36;;;;;;;1.77;0.60;;;21.60;99.90;;;;;;5023755;28;20453;-78
2022/08/06 10:08:10;;;;;;;2.37;0.70;;;22.00;99.90;;;;;;5023548;28;20505;-78
2022/08/06 10:10:46;;;;;;;3.23;1.33;;;22.10;99.90;;;;;;5026454;28;20905;-79
2022/08/06 10:13:24;;;;;;;2.40;0.70;;;22.60;99.90;;;;;;5024443;28;20457;-78
2022/08/06 10:15:53;;;;;;;3.90;0.97;;;22.60;99.90;;;;;;5025424;28;20484;-80
2022/08/06 10:18:39;;;;;;;3.53;0.80;;;22.50;99.90;;;;;;5021881;28;20622;-79
2022/08/06 10:21:10;;;;;;;2.10;0.80;;;22.50;99.90;;;;;;5022587;28;20519;-81
2022/08/06 10:23:40;;;;;;;1.60;0.60;;;22.90;99.90;;;;;;5026723;28;20449;-78
2022/08/06 10:26:10;;;;;;;2.93;0.70;;;23.20;99.90;;;;;;5028990;28;20984;-80
2022/08/06 10:28:38;;;;;;;2.00;0.70;;;22.90;99.90;;;;;;5027600;28;20849;-77
2022/08/06 10:31:10;;;;;;;4.37;0.77;;;22.90;99.90;;;;;;5030009;28;20453;-79
2022/08/06 10:33:41;;;;;;;2.70;0.77;;;22.70;99.90;;;;;;5030525;28;20438;-81
2022/08/06 10:36:11;;;;;;;4.60;0.83;;;23.00;99.90;;;;;;5031850;28;20464;-81
2022/08/06 10:38:41;;;;;;;2.00;0.70;;;23.40;99.90;;;;;;5024218;28;20560;-80
2022/08/06 10:41:11;;;;;;;2.23;0.60;;;23.80;99.90;;;;;;5024814;28;20452;-78
2022/08/06 10:43:40;;;;;;;3.63;0.77;;;24.10;99.90;;;;;;5025400;28;20548;-80
2022/08/06 10:46:08;;;;;;;2.37;0.83;;;24.20;99.90;;;;;;5023843;28;20476;-80
2022/08/06 10:48:40;;;;;;;1.80;0.80;;;24.60;99.90;;;;;;5024941;28;20521;-80
2022/08/06 10:51:09;;;;;;;2.00;0.90;;;24.50;99.90;;;;;;5029231;28;20570;-82
2022/08/06 10:53:39;;;;;;;3.13;0.90;;;24.60;99.90;;;;;;5042453;28;20524;-78
2022/08/06 10:56:08;;;;;;;3.20;0.70;;;24.90;99.90;;;;;;5042515;28;20492;-79
2022/08/06 10:58:36;;;;;;;2.53;0.70;;;25.30;99.90;;;;;;5039236;28;20564;-77
2022/08/06 11:01:07;;;;;;;1.70;0.63;;;25.20;99.90;;;;;;5039988;28;20476;-80
2022/08/06 11:03:52;;;;;;;2.07;0.73;;;25.50;99.90;;;;;;5035843;28;20527;-78
2022/08/06 11:06:48;;;;;;;2.63;0.80;;;25.70;99.90;;;;;;5029472;28;20544;-78
2022/08/06 11:09:28;;;;;;;2.47;0.87;;;25.60;99.90;;;;;;5004654;28;20445;-78
2022/08/06 11:12:13;;;;;;;1.70;0.70;;;25.10;99.90;;;;;;5033672;28;20531;-78
2022/08/06 11:14:41;;;;;;;2.13;0.90;;;24.50;99.90;;;;;;5033286;28;20473;-78
2022/08/06 11:17:11;;;;;;;3.00;0.80;;;24.00;99.90;;;;;;5032566;28;20492;-78
2022/08/06 11:19:40;;;;;;;2.13;0.70;;;23.70;99.90;;;;;;5033817;28;20543;-78
2022/08/06 11:22:07;;;;;;;1.80;0.60;;;23.40;99.90;;;;;;5028611;28;20831;-77
2022/08/06 11:24:51;;;;;;;2.00;0.70;;;23.30;99.90;;;;;;5032398;28;20452;-78
2022/08/06 11:27:48;;;;;;;1.90;0.70;;;23.80;99.90;;;;;;5028230;28;20476;-78
2022/08/06 11:30:15;;;;;;;2.00;0.77;;;23.90;99.90;;;;;;5022369;28;20449;-78
2022/08/06 11:32:47;;;;;;;3.23;0.60;;;23.50;99.90;;;;;;5031653;28;20981;-79
2022/08/06 11:35:40;;;;;;;2.00;0.80;;;24.10;99.90;;;;;;5034621;28;20539;-79
2022/08/06 11:38:08;;;;;;;3.33;0.70;;;24.90;99.90;;;;;;5037617;28;20880;-78
2022/08/06 11:41:00;;;;;;;2.13;0.87;;;25.60;99.90;;;;;;5037248;28;20594;-80
2022/08/06 11:43:49;;;;;;;3.23;0.90;;;26.30;99.90;;;;;;5016510;28;20489;-80
2022/08/06 11:46:25;;;;;;;2.53;0.70;;;26.30;99.90;;;;;;5017612;28;20481;-79
2022/08/06 11:49:18;;;;;;;2.10;0.63;;;25.80;99.90;;;;;;5017702;28;20477;-79
2022/08/06 11:51:47;;;;;;;2.83;0.80;;;25.00;99.90;;;;;;5017554;28;20454;-78
2022/08/06 11:54:16;;;;;;;3.30;1.00;;;24.40;99.90;;;;;;5028925;28;20564;-79
2022/08/06 11:57:35;;;;;;;3.13;1.10;;;23.80;99.90;;;;;;5036737;28;20484;-78
2022/08/06 12:00:14;;;;;;;1.80;0.70;;;23.40;99.90;;;;;;4974755;28;20984;-79
2022/08/06 12:03:01;;;;;;;2.30;0.70;;;22.90;99.90;;;;;;4974436;28;21000;-78
2022/08/06 12:05:49;;;;;;;2.20;0.73;;;22.80;99.90;;;;;;5013794;28;20906;-78
2022/08/06 12:08:28;;;;;;;2.00;0.80;;;22.50;99.90;;;;;;5034576;28;20543;-78
2022/08/06 12:11:31;;;;;;;3.73;0.83;;;22.60;99.90;;;;;;5034091;28;20972;-79
2022/08/06 12:13:58;;;;;;;4.90;0.97;;;23.40;99.90;;;;;;5025813;28;21076;-79
2022/08/06 12:16:35;;;;;;;2.30;0.80;;;24.00;99.90;;;;;;5027288;28;20454;-79
2022/08/06 12:19:03;;;;;;;2.80;0.93;;;24.00;99.90;;;;;;5031138;28;20594;-79
2022/08/06 12:21:31;;;;;;;3.10;0.70;;;24.00;99.90;;;;;;5029205;28;20457;-80
2022/08/06 12:23:58;;;;;;;1.90;0.70;;;23.50;99.90;;;;;;5025035;28;20463;-78
2022/08/06 12:26:31;;;;;;;2.33;0.70;;;23.40;99.90;;;;;;5029770;28;20528;-80
2022/08/06 12:29:03;;;;;;;2.00;0.80;;;23.80;99.90;;;;;;5026550;28;20857;-79
2022/08/06 12:31:35;;;;;;;1.90;0.70;;;24.70;99.90;;;;;;5029249;28;20452;-79
2022/08/06 12:34:03;;;;;;;2.13;0.70;;;25.70;99.90;;;;;;5031141;28;20544;-79
2022/08/06 12:36:32;;;;;;;3.80;0.93;;;26.50;99.90;;;;;;5031669;28;20993;-80
2022/08/06 12:39:03;;;;;;;3.60;0.80;;;27.00;99.90;;;;;;5029678;28;20481;-79
2022/08/06 12:41:35;;;;;;;2.93;0.80;;;26.80;99.90;;;;;;5025225;28;21007;-78
2022/08/06 12:44:02;;;;;;;2.07;0.63;;;26.90;99.90;;;;;;5026750;28;20482;-79
2022/08/06 12:46:29;;;;;;;1.93;0.60;;;27.40;99.90;;;;;;5025904;28;20547;-79
2022/08/06 12:48:57;;;;;;;2.07;0.60;;;27.30;99.90;;;;;;5033690;28;20550;-79
2022/08/06 12:51:24;;;;;;;2.90;0.90;;;26.70;99.40;;;;;;5033754;28;20518;-81
2022/08/06 12:53:52;;;;;;;2.90;0.60;;;26.90;99.90;;;;;;5028105;28;20461;-80
2022/08/06 12:56:22;;;;;;;2.50;0.70;;;26.40;99.90;;;;;;5027935;28;20441;-78
2022/08/06 12:58:50;;;;;;;3.37;0.70;;;25.80;99.90;;;;;;5027008;28;20993;-79
2022/08/06 13:01:19;;;;;;;2.07;0.70;;;25.80;99.90;;;;;;5027443;28;20489;-79
2022/08/06 13:03:49;;;;;;;2.83;0.67;;;26.00;99.90;;;;;;5025581;28;20446;-80
2022/08/06 13:06:22;;;;;;;3.33;0.87;;;26.00;99.90;;;;;;5027283;28;20560;-81
2022/08/06 13:08:51;;;;;;;1.60;0.60;;;26.60;99.90;;;;;;5026227;28;20556;-78
2022/08/06 13:11:18;;;;;;;2.40;1.03;;;27.10;99.90;;;;;;5023955;28;20868;-77
2022/08/06 13:13:48;;;;;;;1.80;0.60;;;27.00;99.90;;;;;;5028074;28;20535;-80
2022/08/06 13:16:16;;;;;;;3.23;0.80;;;26.90;99.90;;;;;;5034797;28;20450;-80